createdAt,value
2018-09-18T00:01:02.390Z,69.90
2018-09-18T00:03:31.631Z,69.72
2018-09-18T00:06:01.330Z,69.79
2018-09-18T00:08:30.670Z,69.52
2018-09-18T00:11:00.650Z,69.30
2018-09-18T00:13:30.594Z,69.65
2018-09-18T00:16:01.097Z,69.85
2018-09-18T00:18:30.730Z,70.12
2018-09-18T00:21:00.787Z,70.25
2018-09-18T00:23:30.615Z,70.56
2018-09-18T00:26:00.439Z,70.98
2018-09-18T00:28:30.003Z,71.24
2018-09-18T00:30:59.538Z,71.14
2018-09-18T00:33:28.996Z,71.58
2018-09-18T00:35:58.516Z,71.97
2018-09-18T00:38:28.651Z,71.88
2018-09-18T00:40:58.322Z,72.73
2018-09-18T00:43:28.040Z,73.04
2018-09-18T00:45:58.583Z,72.74
2018-09-18T00:48:28.648Z,73.23
2018-09-18T00:50:58.664Z,73.42
2018-09-18T00:53:28.579Z,73.02
2018-09-18T00:55:59.034Z,72.82
2018-09-18T00:58:29.267Z,72.71
2018-09-18T01:00:59.015Z,72.83
2018-09-18T01:03:28.400Z,73.12
2018-09-18T01:05:57.880Z,73.17
2018-09-18T01:08:27.194Z,73.06
2018-09-18T01:10:56.807Z,73.57
2018-09-18T01:13:26.263Z,73.06
2018-09-18T01:15:55.694Z,73.61
2018-09-18T01:18:29.361Z,74.18
2018-09-18T01:20:58.842Z,74.18
2018-09-18T01:23:28.312Z,74.03
2018-09-18T01:25:58.014Z,73.43
2018-09-18T01:28:27.542Z,73.62
2018-09-18T01:30:57.019Z,73.73
2018-09-18T01:33:26.675Z,73.68
2018-09-18T01:35:56.282Z,73.71
2018-09-18T01:38:26.214Z,73.30
2018-09-18T01:40:56.011Z,73.58
2018-09-18T01:43:25.387Z,73.35
2018-09-18T01:45:55.322Z,73.62
2018-09-18T01:48:24.833Z,73.98
2018-09-18T01:50:54.294Z,74.25
2018-09-18T01:53:23.833Z,73.93
2018-09-18T01:55:53.283Z,73.29
2018-09-18T01:58:22.686Z,73.89
2018-09-18T02:00:51.969Z,73.69
2018-09-18T02:03:21.868Z,73.74
2018-09-18T02:05:51.354Z,73.50
2018-09-18T02:08:20.838Z,74.29
2018-09-18T02:10:50.352Z,73.65
2018-09-18T02:13:20.738Z,74.16
2018-09-18T02:15:50.649Z,73.98
2018-09-18T02:18:20.576Z,74.04
2018-09-18T02:20:50.012Z,74.63
2018-09-18T02:23:19.508Z,74.64
2018-09-18T02:25:49.422Z,74.93
2018-09-18T02:28:19.103Z,74.80
2018-09-18T02:30:49.105Z,75.36
2018-09-18T02:33:18.986Z,75.74
2018-09-18T02:35:48.455Z,75.44
2018-09-18T02:38:18.162Z,75.53
2018-09-18T02:40:47.445Z,76.36
2018-09-18T02:43:17.012Z,75.65
2018-09-18T02:45:46.259Z,76.14
2018-09-18T02:48:16.255Z,76.27
2018-09-18T02:50:45.711Z,76.24
2018-09-18T02:53:15.475Z,75.69
2018-09-18T02:55:45.138Z,76.41
2018-09-18T02:58:14.684Z,76.84
2018-09-18T03:00:44.138Z,76.57
2018-09-18T03:03:13.868Z,76.26
2018-09-18T03:05:43.985Z,76.34
2018-09-18T03:08:13.745Z,76.41
2018-09-18T03:10:43.178Z,76.78
2018-09-18T03:13:12.894Z,76.79
2018-09-18T03:15:42.611Z,76.98
2018-09-18T03:18:12.161Z,77.70
2018-09-18T03:20:42.194Z,77.31
2018-09-18T03:23:11.823Z,77.76
2018-09-18T03:25:41.223Z,77.94
2018-09-18T03:28:10.975Z,77.90
2018-09-18T03:30:40.637Z,77.33
2018-09-18T03:33:10.238Z,77.81
2018-09-18T03:35:39.760Z,77.83
2018-09-18T03:38:09.390Z,77.74
2018-09-18T03:40:38.651Z,77.74
2018-09-18T03:43:08.185Z,77.98
2018-09-18T03:45:38.127Z,77.74
2018-09-18T03:48:07.758Z,77.72
2018-09-18T03:50:36.986Z,78.03
2018-09-18T03:53:06.388Z,77.92
2018-09-18T03:55:35.883Z,78.24
2018-09-18T03:58:05.134Z,78.51
2018-09-18T04:00:34.710Z,78.44
2018-09-18T04:03:05.148Z,78.26
2018-09-18T04:05:34.965Z,78.74
2018-09-18T04:08:04.255Z,78.72
2018-09-18T04:10:33.786Z,78.39
2018-09-18T04:13:03.458Z,78.49
2018-09-18T04:15:32.951Z,78.56
2018-09-18T04:18:02.994Z,78.29
2018-09-18T04:20:32.587Z,78.43
2018-09-18T04:23:02.692Z,78.74
2018-09-18T04:25:32.285Z,78.21
2018-09-18T04:28:01.727Z,78.50
2018-09-18T04:30:31.387Z,78.10
2018-09-18T04:33:01.314Z,78.39
2018-09-18T04:35:31.531Z,78.28
2018-09-18T04:38:00.939Z,78.63
2018-09-18T04:40:30.851Z,78.57
2018-09-18T04:43:01.175Z,78.67
2018-09-18T04:45:30.710Z,79.04
2018-09-18T04:48:00.395Z,78.94
2018-09-18T04:50:30.271Z,79.35
2018-09-18T04:53:00.408Z,79.52
2018-09-18T04:55:29.966Z,79.58
2018-09-18T04:57:59.473Z,80.35
2018-09-18T05:00:29.312Z,80.28
2018-09-18T05:02:58.962Z,80.40
2018-09-18T05:05:29.128Z,80.42
2018-09-18T05:07:58.482Z,80.28
2018-09-18T05:10:28.880Z,79.87
2018-09-18T05:12:58.723Z,80.19
2018-09-18T05:15:28.303Z,80.19
2018-09-18T05:17:57.775Z,79.69
2018-09-18T05:20:27.050Z,80.50
2018-09-18T05:22:56.542Z,80.22
2018-09-18T05:25:26.126Z,80.74
2018-09-18T05:27:56.159Z,80.69
2018-09-18T05:30:26.490Z,80.29
2018-09-18T05:32:56.400Z,80.37
2018-09-18T05:35:25.936Z,80.70
2018-09-18T05:37:55.154Z,80.76
2018-09-18T05:40:24.931Z,80.83
2018-09-18T05:42:54.441Z,80.92
2018-09-18T05:45:24.720Z,80.17
2018-09-18T05:47:54.106Z,80.47
2018-09-18T05:50:23.348Z,79.92
2018-09-18T05:52:53.328Z,80.05
2018-09-18T05:55:22.768Z,79.77
2018-09-18T05:57:52.292Z,78.88
2018-09-18T06:00:21.841Z,78.28
2018-09-18T06:02:51.296Z,77.48
2018-09-18T06:05:21.230Z,76.82
2018-09-18T06:07:50.705Z,76.91
2018-09-18T06:10:20.400Z,76.32
2018-09-18T06:12:49.710Z,75.90
2018-09-18T06:15:19.210Z,75.40
2018-09-18T06:17:48.731Z,75.26
2018-09-18T06:20:18.665Z,74.72
2018-09-18T06:22:48.347Z,73.97
2018-09-18T06:25:17.858Z,69.60
2018-09-18T06:27:47.369Z,67.57
2018-09-18T06:30:17.492Z,68.71
2018-09-18T06:32:47.424Z,69.15
2018-09-18T06:35:17.173Z,69.13
2018-09-18T06:37:46.796Z,69.48
2018-09-18T06:40:16.322Z,69.11
2018-09-18T06:42:45.835Z,68.89
2018-09-18T06:45:15.746Z,68.12
2018-09-18T06:47:45.006Z,67.43
2018-09-18T06:50:14.218Z,67.29
2018-09-18T06:52:43.912Z,67.49
2018-09-18T06:55:13.660Z,66.99
2018-09-18T06:57:43.710Z,66.78
2018-09-18T07:00:13.246Z,66.73
2018-09-18T07:02:42.449Z,66.37
2018-09-18T07:05:12.048Z,65.83
2018-09-18T07:07:41.235Z,65.36
2018-09-18T07:10:10.689Z,65.35
2018-09-18T07:12:40.917Z,64.75
2018-09-18T07:15:10.550Z,64.56
2018-09-18T07:17:40.362Z,63.86
2018-09-18T07:20:09.676Z,63.90
2018-09-18T07:22:39.790Z,63.18
2018-09-18T07:25:09.447Z,62.02
2018-09-18T07:27:39.439Z,62.40
2018-09-18T07:30:09.504Z,62.09
2018-09-18T07:32:39.034Z,62.19
2018-09-18T07:35:09.193Z,60.77
2018-09-18T07:37:38.663Z,60.58
2018-09-18T07:40:08.570Z,58.39
2018-09-18T07:42:38.058Z,57.11
2018-09-18T07:45:07.551Z,55.37
2018-09-18T07:47:37.067Z,54.34
2018-09-18T07:50:06.371Z,53.95
2018-09-18T07:52:36.456Z,53.78
2018-09-18T07:55:06.960Z,53.18
2018-09-18T07:57:36.363Z,50.88
2018-09-18T08:00:06.163Z,51.20
2018-09-18T08:02:35.923Z,48.96
2018-09-18T08:05:05.735Z,48.63
2018-09-18T08:07:35.790Z,45.63
2018-09-18T08:10:06.094Z,45.01
2018-09-18T08:12:35.811Z,46.91
2018-09-18T08:15:05.330Z,47.01
2018-09-18T08:17:34.810Z,45.40
2018-09-18T08:20:04.310Z,45.77
2018-09-18T08:22:34.041Z,47.16
2018-09-18T08:25:03.623Z,45.91
2018-09-18T08:27:34.111Z,45.42
2018-09-18T08:30:03.818Z,43.42
2018-09-18T08:32:33.902Z,44.28
2018-09-18T08:35:03.355Z,44.12
2018-09-18T08:37:32.873Z,44.36
2018-09-18T08:40:02.680Z,44.47
2018-09-18T08:42:32.650Z,44.81
2018-09-18T08:45:02.003Z,44.81
2018-09-18T08:47:31.532Z,45.59
2018-09-18T08:50:01.211Z,45.68
2018-09-18T08:52:30.742Z,43.76
2018-09-18T08:55:00.219Z,43.89
2018-09-18T08:57:29.770Z,42.88
2018-09-18T08:59:59.246Z,42.23
2018-09-18T09:02:28.791Z,42.30
2018-09-18T09:04:58.352Z,42.52
2018-09-18T09:07:28.034Z,43.15
2018-09-18T09:09:57.760Z,43.92
2018-09-18T09:12:27.442Z,44.22
2018-09-18T09:14:56.973Z,43.62
2018-09-18T09:17:26.383Z,43.81
2018-09-18T09:19:55.920Z,43.73
2018-09-18T09:22:26.242Z,43.05
2018-09-18T09:24:55.987Z,41.89
2018-09-18T09:27:25.753Z,42.50
2018-09-18T09:29:55.232Z,41.64
2018-09-18T09:32:25.181Z,40.58
2018-09-18T09:34:55.057Z,41.60
2018-09-18T09:37:24.496Z,41.20
2018-09-18T09:39:54.519Z,40.95
2018-09-18T09:42:24.223Z,40.46
2018-09-18T09:44:53.847Z,40.39
2018-09-18T09:47:23.982Z,39.50
2018-09-18T09:49:54.260Z,39.45
2018-09-18T09:52:23.940Z,39.22
2018-09-18T09:54:53.838Z,39.47
2018-09-18T09:57:23.073Z,40.15
2018-09-18T09:59:53.602Z,40.25
2018-09-18T10:02:28.307Z,39.25
2018-09-18T10:04:59.314Z,39.73
2018-09-18T10:07:28.960Z,40.01
2018-09-18T10:09:58.286Z,39.68
2018-09-18T10:12:27.777Z,39.80
2018-09-18T10:14:57.291Z,40.40
2018-09-18T10:17:27.026Z,40.38
2018-09-18T10:19:56.701Z,39.95
2018-09-18T10:22:26.265Z,39.66
2018-09-18T10:24:56.246Z,39.47
2018-09-18T10:27:26.577Z,39.31
2018-09-18T10:29:56.646Z,39.58
2018-09-18T10:32:26.141Z,39.40
2018-09-18T10:34:56.648Z,39.73
2018-09-18T10:37:26.089Z,40.34
2018-09-18T10:39:56.729Z,39.52
2018-09-18T10:42:26.254Z,39.91
2018-09-18T10:44:55.727Z,38.79
2018-09-18T10:47:25.199Z,38.92
2018-09-18T10:49:54.662Z,39.71
2018-09-18T10:52:24.490Z,39.33
2018-09-18T10:54:53.721Z,39.83
2018-09-18T10:57:24.007Z,39.56
2018-09-18T10:59:53.498Z,37.95
2018-09-18T11:02:23.043Z,37.54
2018-09-18T11:04:52.498Z,37.14
2018-09-18T11:07:21.833Z,36.21
2018-09-18T11:09:51.601Z,36.34
2018-09-18T11:12:21.123Z,36.66
2018-09-18T11:14:51.613Z,37.07
2018-09-18T11:17:21.923Z,35.63
2018-09-18T11:19:51.738Z,31.61
2018-09-18T11:22:21.553Z,34.59
2018-09-18T11:24:51.234Z,36.75
2018-09-18T11:27:20.736Z,36.37
2018-09-18T11:29:50.688Z,36.90
2018-09-18T11:32:21.172Z,36.47
2018-09-18T11:34:51.119Z,38.00
2018-09-18T11:37:21.194Z,37.35
2018-09-18T11:39:51.059Z,37.74
2018-09-18T11:42:20.920Z,37.69
2018-09-18T11:44:50.399Z,36.96
2018-09-18T11:47:20.018Z,35.52
2018-09-18T11:49:49.532Z,36.73
2018-09-18T11:52:19.067Z,37.26
2018-09-18T11:54:48.958Z,37.52
2018-09-18T11:57:18.913Z,37.34
2018-09-18T11:59:48.183Z,37.33
2018-09-18T12:02:17.695Z,36.64
2018-09-18T12:04:47.350Z,36.27
2018-09-18T12:07:17.093Z,35.17
2018-09-18T12:09:46.622Z,33.76
2018-09-18T12:12:16.095Z,36.28
2018-09-18T12:14:45.779Z,34.36
2018-09-18T12:17:15.630Z,34.97
2018-09-18T12:19:45.455Z,33.62
2018-09-18T12:22:15.021Z,33.79
2018-09-18T12:24:44.494Z,31.00
2018-09-18T12:27:14.129Z,31.01
2018-09-18T12:29:43.939Z,30.78
2018-09-18T12:32:13.179Z,31.68
2018-09-18T12:34:43.339Z,31.46
2018-09-18T12:37:12.840Z,32.48
2018-09-18T12:39:42.484Z,31.84
2018-09-18T12:42:11.995Z,32.23
2018-09-18T12:44:42.120Z,31.75
2018-09-18T12:47:12.315Z,32.11
2018-09-18T12:49:41.979Z,32.96
2018-09-18T12:52:11.702Z,34.02
2018-09-18T12:54:41.791Z,34.42
2018-09-18T12:57:11.434Z,33.22
2018-09-18T12:59:40.824Z,32.79
2018-09-18T13:02:10.523Z,33.16
2018-09-18T13:04:40.246Z,33.19
2018-09-18T13:07:09.915Z,32.01
2018-09-18T13:09:39.987Z,31.52
2018-09-18T13:12:10.035Z,30.62
2018-09-18T13:14:40.358Z,30.14
2018-09-18T13:17:10.510Z,30.19
2018-09-18T13:19:39.916Z,30.42
2018-09-18T13:22:09.904Z,30.05
2018-09-18T13:24:39.960Z,30.71
2018-09-18T13:27:09.847Z,30.17
2018-09-18T13:29:39.364Z,29.97
2018-09-18T13:32:09.345Z,30.66
2018-09-18T13:34:38.561Z,29.79
2018-09-18T13:37:08.636Z,29.79
2018-09-18T13:39:38.011Z,30.39
2018-09-18T13:42:07.629Z,29.55
2018-09-18T13:44:36.842Z,30.79
2018-09-18T13:47:06.422Z,29.96
2018-09-18T13:49:35.795Z,30.46
2018-09-18T13:52:05.558Z,30.94
2018-09-18T13:54:34.906Z,31.83
2018-09-18T13:57:04.774Z,31.56
2018-09-18T13:59:34.437Z,30.80
2018-09-18T14:02:04.628Z,31.20
2018-09-18T14:04:33.866Z,32.02
2018-09-18T14:07:03.847Z,31.73
2018-09-18T14:09:34.301Z,30.30
2018-09-18T14:12:03.638Z,30.12
2018-09-18T14:14:33.152Z,30.48
2018-09-18T14:17:02.795Z,31.23
2018-09-18T14:19:32.414Z,31.05
2018-09-18T14:22:01.856Z,30.87
2018-09-18T14:24:31.156Z,31.86
2018-09-18T14:27:00.375Z,31.03
2018-09-18T14:29:29.743Z,31.34
2018-09-18T14:31:59.222Z,30.60
2018-09-18T14:34:29.366Z,29.87
2018-09-18T14:36:59.131Z,30.47
2018-09-18T14:39:28.579Z,30.60
2018-09-18T14:41:58.121Z,30.85
2018-09-18T14:44:27.771Z,30.45
2018-09-18T14:46:57.359Z,31.97
2018-09-18T14:49:27.078Z,31.78
2018-09-18T14:51:57.130Z,31.29
2018-09-18T14:54:26.862Z,31.45
2018-09-18T14:56:56.782Z,31.96
2018-09-18T14:59:26.383Z,31.67
2018-09-18T15:01:55.792Z,33.26
2018-09-18T15:04:25.493Z,34.81
2018-09-18T15:06:54.970Z,38.71
2018-09-18T15:09:24.891Z,40.27
2018-09-18T15:11:54.379Z,45.68
2018-09-18T15:14:23.945Z,47.18
2018-09-18T15:16:53.667Z,45.18
2018-09-18T15:19:23.377Z,44.84
2018-09-18T15:21:53.215Z,39.46
2018-09-18T15:24:22.529Z,35.82
2018-09-18T15:26:52.524Z,34.60
2018-09-18T15:29:21.924Z,33.62
2018-09-18T15:31:51.749Z,33.28
2018-09-18T15:34:20.993Z,32.97
2018-09-18T15:36:50.461Z,31.79
2018-09-18T15:39:20.001Z,31.54
2018-09-18T15:41:49.509Z,31.54
2018-09-18T15:44:18.999Z,31.37
2018-09-18T15:46:48.520Z,31.50
2018-09-18T15:49:18.167Z,31.05
2018-09-18T15:51:47.979Z,30.44
2018-09-18T15:54:17.429Z,29.44
2018-09-18T15:56:47.486Z,29.83
2018-09-18T15:59:17.189Z,30.11
2018-09-18T16:01:46.746Z,30.45
2018-09-18T16:04:17.215Z,30.21
2018-09-18T16:06:46.419Z,29.88
2018-09-18T16:09:15.901Z,29.28
2018-09-18T16:11:45.415Z,29.55
2018-09-18T16:14:14.917Z,29.93
2018-09-18T16:16:45.108Z,30.84
2018-09-18T16:19:14.555Z,30.32
2018-09-18T16:21:43.840Z,30.67
2018-09-18T16:24:13.522Z,30.95
2018-09-18T16:26:43.188Z,31.23
2018-09-18T16:29:13.370Z,32.32
2018-09-18T16:31:42.631Z,31.57
2018-09-18T16:34:12.174Z,32.11
2018-09-18T16:36:41.685Z,31.72
2018-09-18T16:39:11.183Z,32.83
2018-09-18T16:41:40.655Z,32.55
2018-09-18T16:44:10.404Z,31.97
2018-09-18T16:46:40.702Z,31.40
2018-09-18T16:49:10.237Z,32.29
2018-09-18T16:51:39.483Z,32.41
2018-09-18T16:54:09.270Z,32.12
2018-09-18T16:56:39.281Z,32.32
2018-09-18T16:59:09.620Z,32.63
2018-09-18T17:01:38.957Z,33.27
2018-09-18T17:04:08.502Z,32.80
2018-09-18T17:06:37.750Z,33.10
2018-09-18T17:09:08.950Z,33.53
2018-09-18T17:11:38.829Z,33.91
2018-09-18T17:14:08.485Z,33.87
2018-09-18T17:16:38.253Z,34.20
2018-09-18T17:19:07.553Z,34.30
2018-09-18T17:21:37.587Z,34.34
2018-09-18T17:24:07.138Z,34.43
2018-09-18T17:26:36.674Z,34.47
2018-09-18T17:29:06.256Z,34.50
2018-09-18T17:31:35.745Z,34.80
2018-09-18T17:34:05.669Z,34.69
2018-09-18T17:36:35.089Z,35.05
2018-09-18T17:39:06.351Z,36.11
2018-09-18T17:41:35.848Z,35.40
2018-09-18T17:44:05.273Z,36.90
2018-09-18T17:46:36.432Z,36.22
2018-09-18T17:49:05.739Z,37.13
2018-09-18T17:51:35.203Z,37.15
2018-09-18T17:54:04.953Z,36.63
2018-09-18T17:56:34.225Z,37.24
2018-09-18T17:59:03.745Z,36.96
2018-09-18T18:01:33.232Z,37.50
2018-09-18T18:04:02.752Z,36.87
2018-09-18T18:06:32.230Z,38.18
2018-09-18T18:09:01.759Z,38.55
2018-09-18T18:11:31.630Z,37.89
2018-09-18T18:14:00.934Z,39.17
2018-09-18T18:16:31.122Z,38.78
2018-09-18T18:19:00.583Z,39.04
2018-09-18T18:21:31.085Z,38.96
2018-09-18T18:24:00.602Z,39.33
2018-09-18T18:26:30.636Z,40.22
2018-09-18T18:29:00.092Z,40.64
2018-09-18T18:31:30.303Z,40.28
2018-09-18T18:33:59.650Z,41.01
2018-09-18T18:36:29.177Z,40.54
2018-09-18T18:38:58.986Z,41.23
2018-09-18T18:41:28.291Z,41.32
2018-09-18T18:43:57.480Z,41.73
2018-09-18T18:46:26.925Z,41.11
2018-09-18T18:48:56.663Z,41.90
2018-09-18T18:51:25.921Z,42.47
2018-09-18T18:53:55.626Z,42.01
2018-09-18T18:56:25.061Z,42.74
2018-09-18T18:58:54.554Z,43.23
2018-09-18T19:01:24.204Z,42.98
2018-09-18T19:03:54.366Z,43.11
2018-09-18T19:06:23.897Z,42.96
2018-09-18T19:08:53.349Z,43.39
2018-09-18T19:11:22.902Z,43.48
2018-09-18T19:13:52.319Z,43.94
2018-09-18T19:16:21.831Z,43.67
2018-09-18T19:18:51.991Z,43.55
2018-09-18T19:21:21.496Z,44.37
2018-09-18T19:23:50.953Z,44.94
2018-09-18T19:26:20.676Z,44.69
2018-09-18T19:28:50.392Z,44.64
2018-09-18T19:31:19.923Z,45.44
2018-09-18T19:33:49.410Z,45.40
2018-09-18T19:36:19.862Z,45.81
2018-09-18T19:38:49.211Z,45.53
2018-09-18T19:41:18.775Z,45.41
2018-09-18T19:43:48.244Z,46.10
2018-09-18T19:46:18.574Z,47.16
2018-09-18T19:48:48.271Z,47.81
2018-09-18T19:51:17.786Z,48.21
2018-09-18T19:53:47.309Z,48.57
2018-09-18T19:56:16.956Z,48.67
2018-09-18T19:58:46.519Z,48.59
2018-09-18T20:01:15.712Z,48.33
2018-09-18T20:03:45.136Z,49.20
2018-09-18T20:06:14.603Z,49.68
2018-09-18T20:08:44.124Z,50.83
2018-09-18T20:11:13.362Z,50.54
2018-09-18T20:13:42.723Z,50.84
2018-09-18T20:16:11.935Z,50.83
2018-09-18T20:18:41.370Z,51.28
2018-09-18T20:21:10.807Z,51.90
2018-09-18T20:23:40.314Z,52.63
2018-09-18T20:26:09.624Z,53.34
2018-09-18T20:28:39.623Z,53.45
2018-09-18T20:31:09.773Z,53.80
2018-09-18T20:33:39.464Z,53.34
2018-09-18T20:36:08.983Z,54.11
2018-09-18T20:38:39.381Z,55.35
2018-09-18T20:41:08.707Z,55.62
2018-09-18T20:43:38.981Z,55.88
2018-09-18T20:46:08.317Z,56.36
2018-09-18T20:48:38.309Z,56.71
2018-09-18T20:51:07.961Z,55.98
2018-09-18T20:53:37.463Z,57.22
2018-09-18T20:56:07.190Z,57.42
2018-09-18T21:01:04.544Z,57.88
2018-09-18T21:03:34.517Z,58.70
2018-09-18T21:06:03.889Z,59.46
2018-09-18T21:08:33.334Z,60.16
2018-09-18T21:11:03.055Z,59.95
2018-09-18T21:13:32.455Z,60.17
2018-09-18T21:16:01.999Z,60.86
2018-09-18T21:18:31.711Z,60.80
2018-09-18T21:21:02.223Z,60.80
2018-09-18T21:23:32.374Z,61.92
2018-09-18T21:26:03.765Z,62.66
2018-09-18T21:28:33.576Z,63.56
2018-09-18T21:31:03.101Z,64.24
2018-09-18T21:33:32.639Z,65.10
2018-09-18T21:36:02.132Z,64.95
2018-09-18T21:38:32.077Z,64.36
2018-09-18T21:41:02.004Z,65.21
2018-09-18T21:43:31.729Z,64.21
2018-09-18T21:46:02.051Z,64.23
2018-09-18T21:48:31.273Z,64.43
2018-09-18T21:51:00.766Z,65.35
2018-09-18T21:53:30.555Z,65.76
2018-09-18T21:55:59.992Z,65.80
2018-09-18T21:58:29.307Z,66.92
2018-09-18T22:01:02.970Z,67.21
2018-09-18T22:03:32.321Z,66.70
2018-09-18T22:06:02.203Z,67.15
2018-09-18T22:08:31.624Z,67.05
2018-09-18T22:11:01.156Z,67.56
2018-09-18T22:13:30.663Z,67.91
2018-09-18T22:16:00.323Z,68.54
2018-09-18T22:18:29.827Z,68.31
2018-09-18T22:20:59.314Z,68.89
2018-09-18T22:23:28.873Z,69.20
2018-09-18T22:25:58.334Z,69.47
2018-09-18T22:28:27.734Z,69.54
2018-09-18T22:30:57.407Z,69.20
2018-09-18T22:33:27.137Z,68.94
2018-09-18T22:35:56.721Z,70.43
2018-09-18T22:38:26.122Z,70.24
2018-09-18T22:40:55.632Z,70.03
2018-09-18T22:43:25.134Z,70.14
2018-09-18T22:45:54.372Z,70.15
2018-09-18T22:48:24.293Z,71.01
2018-09-18T22:50:53.504Z,71.93
2018-09-18T22:53:22.934Z,72.10
2018-09-18T22:55:52.412Z,72.60
2018-09-18T22:58:22.303Z,72.25
2018-09-18T23:00:51.851Z,72.46
2018-09-18T23:03:21.325Z,71.97
2018-09-18T23:05:50.847Z,73.31
2018-09-18T23:08:20.348Z,73.43
2018-09-18T23:10:50.116Z,73.18
2018-09-18T23:13:19.981Z,73.75
2018-09-18T23:15:49.762Z,73.97
2018-09-18T23:18:19.180Z,75.01
2018-09-18T23:20:49.350Z,74.64
2018-09-18T23:23:18.694Z,75.80
2018-09-18T23:25:49.084Z,75.62
2018-09-18T23:28:18.405Z,75.52
2018-09-18T23:30:49.024Z,75.32
2018-09-18T23:33:18.501Z,76.72
2018-09-18T23:35:47.982Z,77.07
2018-09-18T23:38:18.489Z,75.88
2018-09-18T23:40:48.001Z,75.86
2018-09-18T23:43:17.711Z,76.42
2018-09-18T23:45:47.244Z,76.73
2018-09-18T23:48:16.716Z,77.32
2018-09-18T23:50:46.224Z,76.66
2018-09-18T23:53:15.459Z,76.54
2018-09-18T23:55:44.827Z,77.70
2018-09-18T23:58:14.573Z,78.42
